createdAt,value
2022-12-03T00:01:59.660Z,97.32
2022-12-03T00:04:26.284Z,97.35
2022-12-03T00:06:53.144Z,97.33
2022-12-03T00:09:20.921Z,97.74
2022-12-03T00:11:48.099Z,97.80
2022-12-03T00:14:14.692Z,97.32
2022-12-03T00:16:41.274Z,96.99
2022-12-03T00:19:07.925Z,97.18
2022-12-03T00:21:34.918Z,96.50
2022-12-03T00:24:01.601Z,98.18
2022-12-03T00:26:28.276Z,96.85
2022-12-03T00:28:55.219Z,96.49
2022-12-03T00:31:23.564Z,97.07
2022-12-03T00:33:51.337Z,96.62
2022-12-03T00:36:18.828Z,96.46
2022-12-03T00:38:45.780Z,96.44
2022-12-03T00:41:13.126Z,96.81
2022-12-03T00:43:39.805Z,97.04
2022-12-03T00:46:06.581Z,97.48
2022-12-03T00:48:33.246Z,96.93
2022-12-03T00:50:59.891Z,97.53
2022-12-03T00:53:26.579Z,96.72
2022-12-03T00:55:53.178Z,96.79
2022-12-03T00:58:19.753Z,97.96
2022-12-03T01:00:46.349Z,97.29
2022-12-03T01:03:12.923Z,97.71
2022-12-03T01:05:39.948Z,97.75
2022-12-03T01:08:06.671Z,96.48
2022-12-03T01:10:33.286Z,97.15
2022-12-03T01:13:00.126Z,96.63
2022-12-03T01:15:26.821Z,96.33
2022-12-03T01:17:54.337Z,96.40
2022-12-03T01:20:21.039Z,97.09
2022-12-03T01:22:47.698Z,96.50
2022-12-03T01:25:14.416Z,96.41
2022-12-03T01:27:40.989Z,96.82
2022-12-03T01:30:08.718Z,97.74
2022-12-03T01:32:35.346Z,97.03
2022-12-03T01:35:01.899Z,96.78
2022-12-03T01:37:28.568Z,97.10
2022-12-03T01:39:55.182Z,97.31
2022-12-03T01:42:24.476Z,97.14
2022-12-03T01:44:53.781Z,96.71
2022-12-03T01:47:24.589Z,97.09
2022-12-03T01:49:55.520Z,97.06
2022-12-03T01:52:27.006Z,96.88
2022-12-03T01:54:56.264Z,97.05
2022-12-03T01:57:34.244Z,96.98
2022-12-03T02:00:01.808Z,96.87
2022-12-03T02:02:32.338Z,97.32
2022-12-03T02:05:00.853Z,98.08
2022-12-03T02:07:32.738Z,97.66
2022-12-03T02:10:01.890Z,98.19
2022-12-03T02:12:34.288Z,99.14
2022-12-03T02:15:01.943Z,99.34
2022-12-03T02:17:28.941Z,98.32
2022-12-03T02:19:56.808Z,97.98
2022-12-03T02:22:48.304Z,98.67
2022-12-03T02:25:44.295Z,98.46
2022-12-03T02:28:11.049Z,98.09
2022-12-03T02:30:37.887Z,98.85
2022-12-03T02:33:05.139Z,99.03
2022-12-03T02:35:34.753Z,98.94
2022-12-03T02:38:13.973Z,98.38
2022-12-03T02:40:42.113Z,98.42
2022-12-03T02:43:10.553Z,98.74
2022-12-03T02:45:41.258Z,97.76
2022-12-03T02:48:19.375Z,98.54
2022-12-03T02:50:51.070Z,98.56
2022-12-03T02:53:22.531Z,97.88
2022-12-03T02:55:50.833Z,97.58
2022-12-03T02:58:18.357Z,97.07
2022-12-03T03:00:46.630Z,98.71
2022-12-03T03:03:13.722Z,98.31
2022-12-03T03:05:41.545Z,98.13
2022-12-03T03:08:09.868Z,98.61
2022-12-03T03:10:39.035Z,98.01
2022-12-03T03:13:12.241Z,97.95
2022-12-03T03:15:40.564Z,97.29
2022-12-03T03:18:08.815Z,97.37
2022-12-03T03:20:36.128Z,97.70
2022-12-03T03:23:17.810Z,97.22
2022-12-03T03:26:09.495Z,97.26
2022-12-03T03:28:39.292Z,97.20
2022-12-03T03:31:08.200Z,97.95
2022-12-03T03:33:36.375Z,97.51
2022-12-03T03:36:03.324Z,97.99
2022-12-03T03:38:30.528Z,98.67
2022-12-03T03:40:58.910Z,96.81
2022-12-03T03:43:25.909Z,97.54
2022-12-03T03:45:53.929Z,97.48
2022-12-03T03:48:21.247Z,97.80
2022-12-03T03:50:48.945Z,97.68
2022-12-03T03:53:17.100Z,97.34
2022-12-03T03:55:43.979Z,97.64
2022-12-03T03:58:11.027Z,97.28
2022-12-03T04:00:37.808Z,97.35
2022-12-03T04:03:05.329Z,96.88
2022-12-03T04:05:32.031Z,97.19
2022-12-03T04:07:59.371Z,96.80
2022-12-03T04:10:44.944Z,97.14
2022-12-03T04:13:11.590Z,96.79
2022-12-03T04:15:38.217Z,96.72
2022-12-03T04:18:23.346Z,97.51
2022-12-03T04:20:49.921Z,96.95
2022-12-03T04:23:16.558Z,97.00
2022-12-03T04:26:01.648Z,97.43
2022-12-03T04:28:47.011Z,97.56
2022-12-03T04:31:36.828Z,96.59
2022-12-03T04:34:22.534Z,96.37
2022-12-03T04:36:49.164Z,96.66
2022-12-03T04:39:15.937Z,97.11
2022-12-03T04:41:42.547Z,97.47
2022-12-03T04:44:27.703Z,97.14
2022-12-03T04:46:54.369Z,96.90
2022-12-03T04:49:21.375Z,97.80
2022-12-03T04:51:48.040Z,97.13
2022-12-03T04:54:15.069Z,97.91
2022-12-03T04:56:41.931Z,97.41
2022-12-03T04:59:15.770Z,96.43
2022-12-03T05:01:43.328Z,97.10
2022-12-03T05:04:10.527Z,97.66
2022-12-03T05:06:37.204Z,96.99
2022-12-03T05:09:03.937Z,96.13
2022-12-03T05:11:31.478Z,96.09
2022-12-03T05:13:58.079Z,96.77
2022-12-03T05:16:24.832Z,95.66
2022-12-03T05:18:51.453Z,95.87
2022-12-03T05:21:18.059Z,96.38
2022-12-03T05:23:44.774Z,95.83
2022-12-03T05:26:11.439Z,96.03
2022-12-03T05:28:38.047Z,95.93
2022-12-03T05:31:05.175Z,95.75
2022-12-03T05:33:31.923Z,95.87
2022-12-03T05:35:58.663Z,96.58
2022-12-03T05:38:25.246Z,97.22
2022-12-03T05:40:51.805Z,96.16
2022-12-03T05:43:18.385Z,97.11
2022-12-03T05:45:45.405Z,95.91
2022-12-03T05:48:15.584Z,96.25
2022-12-03T05:50:44.378Z,96.53
2022-12-03T05:53:15.081Z,97.16
2022-12-03T05:55:41.908Z,97.28
2022-12-03T05:58:09.199Z,96.18
2022-12-03T06:00:42.380Z,96.64
2022-12-03T06:03:09.731Z,96.96
2022-12-03T06:05:36.453Z,97.74
2022-12-03T06:08:03.171Z,97.52
2022-12-03T06:10:30.134Z,96.71
2022-12-03T06:12:57.031Z,96.99
2022-12-03T06:15:24.048Z,97.36
2022-12-03T06:17:50.713Z,97.24
2022-12-03T06:20:19.998Z,97.19
2022-12-03T06:22:47.124Z,97.12
2022-12-03T06:25:14.414Z,96.94
2022-12-03T06:27:40.996Z,97.07
2022-12-03T06:30:09.001Z,97.43
2022-12-03T06:32:35.712Z,96.70
2022-12-03T06:35:02.387Z,97.60
2022-12-03T06:37:28.981Z,97.88
2022-12-03T06:39:55.552Z,97.58
2022-12-03T06:42:22.145Z,97.89
2022-12-03T06:44:48.731Z,98.27
2022-12-03T06:47:15.316Z,97.76
2022-12-03T06:49:41.925Z,97.57
2022-12-03T06:52:08.483Z,98.12
2022-12-03T06:54:35.086Z,98.25
2022-12-03T06:57:01.740Z,98.69
2022-12-03T06:59:28.458Z,98.73
2022-12-03T07:01:55.167Z,99.36
2022-12-03T07:04:21.788Z,98.22
2022-12-03T07:06:48.358Z,98.05
2022-12-03T07:09:17.012Z,98.23
2022-12-03T07:11:43.612Z,98.58
2022-12-03T07:14:13.665Z,98.35
2022-12-03T07:16:43.156Z,99.15
2022-12-03T07:19:10.677Z,98.95
2022-12-03T07:21:37.230Z,98.90
2022-12-03T07:24:04.040Z,98.99
2022-12-03T07:26:30.618Z,98.61
2022-12-03T07:28:57.267Z,98.92
2022-12-03T07:31:23.952Z,98.94
2022-12-03T07:33:50.590Z,99.66
2022-12-03T07:36:17.431Z,99.12
2022-12-03T07:38:44.788Z,97.97
2022-12-03T07:41:11.434Z,98.74
2022-12-03T07:43:38.103Z,98.66
2022-12-03T07:46:04.914Z,98.42
2022-12-03T07:48:31.540Z,98.46
2022-12-03T07:50:58.603Z,98.15
2022-12-03T07:53:25.160Z,97.86
2022-12-03T07:55:51.807Z,98.39
2022-12-03T07:58:18.388Z,97.77
2022-12-03T08:00:44.992Z,97.31
2022-12-03T08:03:11.594Z,97.05
2022-12-03T08:05:38.153Z,97.19
2022-12-03T08:08:05.258Z,96.75
2022-12-03T08:10:31.970Z,97.41
2022-12-03T08:12:59.218Z,97.69
2022-12-03T08:15:32.244Z,97.82
2022-12-03T08:18:11.582Z,98.96
2022-12-03T08:20:40.497Z,96.77
2022-12-03T08:23:12.904Z,96.41
2022-12-03T08:25:39.538Z,96.20
2022-12-03T08:28:12.334Z,96.83
2022-12-03T08:30:39.503Z,97.02
2022-12-03T08:33:35.783Z,96.03
2022-12-03T08:36:18.758Z,95.80
2022-12-03T08:39:34.567Z,95.28
2022-12-03T08:42:41.900Z,95.80
2022-12-03T08:45:40.077Z,95.65
2022-12-03T08:48:27.314Z,95.48
2022-12-03T08:50:56.400Z,95.63
2022-12-03T08:53:31.143Z,95.76
2022-12-03T08:56:28.415Z,96.20
2022-12-03T08:58:58.732Z,95.37
2022-12-03T09:01:41.809Z,95.11
2022-12-03T09:04:23.305Z,94.50
2022-12-03T09:06:51.170Z,93.64
2022-12-03T09:09:18.454Z,93.46
2022-12-03T09:11:45.753Z,94.30
2022-12-03T09:14:18.346Z,94.31
2022-12-03T09:16:45.586Z,94.20
2022-12-03T09:19:12.302Z,93.58
2022-12-03T09:21:38.894Z,94.46
2022-12-03T09:24:05.718Z,94.19
2022-12-03T09:26:32.383Z,93.64
2022-12-03T09:28:58.973Z,94.45
2022-12-03T09:31:25.660Z,93.57
2022-12-03T09:33:52.303Z,93.92
2022-12-03T09:36:18.941Z,93.28
2022-12-03T09:38:47.867Z,93.29
2022-12-03T09:41:15.061Z,92.75
2022-12-03T09:46:30.296Z,92.87
2022-12-03T09:48:57.533Z,92.16
2022-12-03T09:51:31.698Z,92.51
2022-12-03T09:54:00.279Z,91.53
2022-12-03T09:56:26.892Z,90.10
2022-12-03T09:58:53.678Z,89.40
2022-12-03T10:01:21.350Z,88.52
2022-12-03T10:03:50.602Z,87.42
2022-12-03T10:06:21.817Z,87.62
2022-12-03T10:08:52.039Z,87.30
2022-12-03T10:11:20.866Z,87.92
2022-12-03T10:13:47.961Z,86.90
2022-12-03T10:16:18.231Z,86.91
2022-12-03T10:18:49.188Z,86.48
2022-12-03T10:21:25.365Z,86.17
2022-12-03T10:24:16.608Z,86.26
2022-12-03T10:26:45.047Z,87.42
2022-12-03T10:29:13.394Z,88.47
2022-12-03T10:31:40.590Z,88.21
2022-12-03T10:34:08.868Z,88.31
2022-12-03T10:36:35.602Z,88.65
2022-12-03T10:39:16.429Z,88.88
2022-12-03T10:41:44.420Z,89.24
2022-12-03T10:44:13.966Z,88.88
2022-12-03T10:46:41.350Z,89.69
2022-12-03T10:49:17.167Z,90.97
2022-12-03T10:51:45.086Z,89.46
2022-12-03T10:54:20.159Z,88.94
2022-12-03T10:56:48.200Z,89.99
2022-12-03T10:59:23.480Z,89.22
2022-12-03T11:01:51.012Z,90.15
2022-12-03T11:04:23.783Z,89.31
2022-12-03T11:06:51.035Z,90.07
2022-12-03T11:09:24.943Z,90.30
2022-12-03T11:11:52.527Z,90.09
2022-12-03T11:14:54.080Z,89.06
2022-12-03T11:17:42.577Z,89.22
2022-12-03T11:20:22.831Z,89.74
2022-12-03T11:22:59.876Z,90.43
2022-12-03T11:25:29.371Z,90.03
2022-12-03T11:28:14.444Z,89.62
2022-12-03T11:30:50.615Z,90.27
2022-12-03T11:33:35.240Z,90.02
2022-12-03T11:36:05.140Z,90.25
2022-12-03T11:38:37.648Z,90.83
2022-12-03T11:41:06.913Z,90.73
2022-12-03T11:43:51.824Z,89.64
2022-12-03T11:46:24.653Z,90.61
2022-12-03T11:48:54.105Z,90.21
2022-12-03T11:51:23.109Z,91.01
2022-12-03T11:53:52.493Z,90.92
2022-12-03T11:56:23.672Z,91.61
2022-12-03T11:58:58.607Z,91.51
2022-12-03T12:01:38.936Z,91.39
2022-12-03T12:04:26.500Z,92.53
2022-12-03T12:06:53.561Z,91.33
2022-12-03T12:10:05.453Z,91.59
2022-12-03T12:12:38.410Z,90.90
2022-12-03T12:15:39.065Z,92.09
2022-12-03T12:18:40.865Z,91.68
2022-12-03T12:21:49.865Z,92.02
2022-12-03T12:24:41.300Z,92.15
2022-12-03T12:27:11.684Z,92.36
2022-12-03T12:29:40.839Z,92.00
2022-12-03T12:32:29.378Z,92.53
2022-12-03T12:35:19.581Z,92.96
2022-12-03T12:38:00.836Z,92.77
2022-12-03T12:40:30.472Z,92.73
2022-12-03T12:43:08.474Z,92.57
2022-12-03T12:45:41.992Z,92.60
2022-12-03T12:48:22.123Z,93.15
2022-12-03T12:50:53.543Z,94.31
2022-12-03T12:53:24.811Z,93.38
2022-12-03T12:55:57.914Z,93.12
2022-12-03T12:58:25.864Z,93.11
2022-12-03T13:00:55.737Z,92.64
2022-12-03T13:03:25.905Z,92.73
2022-12-03T13:05:53.733Z,92.80
2022-12-03T13:08:22.084Z,92.71
2022-12-03T13:10:49.691Z,92.86
2022-12-03T13:13:19.304Z,92.54
2022-12-03T13:16:16.144Z,94.33
2022-12-03T13:18:48.169Z,93.44
2022-12-03T13:21:23.152Z,93.47
2022-12-03T13:23:59.107Z,93.70
2022-12-03T13:26:45.898Z,93.39
2022-12-03T13:29:18.300Z,94.11
2022-12-03T13:31:55.659Z,94.06
2022-12-03T13:34:25.214Z,94.34
2022-12-03T13:36:58.095Z,94.69
2022-12-03T13:39:35.137Z,94.69
2022-12-03T13:42:42.147Z,96.14
2022-12-03T13:45:14.761Z,95.04
2022-12-03T13:47:53.170Z,95.01
2022-12-03T13:50:39.377Z,95.02
2022-12-03T13:53:33.413Z,95.27
2022-12-03T13:56:26.449Z,95.41
2022-12-03T13:58:53.762Z,95.40
2022-12-03T14:01:20.705Z,95.23
2022-12-03T14:03:47.422Z,95.70
2022-12-03T14:06:14.508Z,96.16
2022-12-03T14:08:41.110Z,96.02
2022-12-03T14:11:07.943Z,95.49
2022-12-03T14:13:34.522Z,96.13
2022-12-03T14:16:01.097Z,95.96
2022-12-03T14:18:27.713Z,95.70
2022-12-03T14:20:54.310Z,95.81
2022-12-03T14:23:20.894Z,96.49
2022-12-03T14:25:47.507Z,96.62
2022-12-03T14:28:14.079Z,96.45
2022-12-03T14:30:40.858Z,97.50
2022-12-03T14:33:07.631Z,96.74
2022-12-03T14:35:35.441Z,97.67
2022-12-03T14:38:01.995Z,98.01
2022-12-03T14:40:28.590Z,97.78
2022-12-03T14:42:55.187Z,98.22
2022-12-03T14:45:23.024Z,97.61
2022-12-03T14:47:49.706Z,98.80
2022-12-03T14:50:16.288Z,99.20
2022-12-03T14:52:43.332Z,99.77
2022-12-03T14:55:10.052Z,99.28
2022-12-03T14:57:37.724Z,99.01
2022-12-03T15:00:07.101Z,99.94
2022-12-03T15:02:33.874Z,99.98
2022-12-03T15:05:00.512Z,99.79
2022-12-03T15:07:27.123Z,100.00
2022-12-03T15:09:54.162Z,99.51
2022-12-03T15:12:21.461Z,99.32
2022-12-03T15:14:48.245Z,99.18
2022-12-03T15:17:15.002Z,99.03
2022-12-03T15:19:41.738Z,99.67
2022-12-03T15:22:08.290Z,100.00
2022-12-03T15:24:34.923Z,100.00
2022-12-03T15:27:01.487Z,100.00
2022-12-03T15:29:28.101Z,100.00
2022-12-03T15:31:54.803Z,100.00
2022-12-03T15:34:23.161Z,100.00
2022-12-03T15:36:52.400Z,100.00
2022-12-03T15:39:19.480Z,100.00
2022-12-03T15:41:46.072Z,100.00
2022-12-03T15:44:12.643Z,100.00
2022-12-03T15:46:39.281Z,100.00
2022-12-03T15:49:05.910Z,100.00
2022-12-03T15:51:32.887Z,100.00
2022-12-03T15:53:59.466Z,100.00
2022-12-03T15:56:26.096Z,100.00
2022-12-03T15:58:53.642Z,100.00
2022-12-03T16:01:20.345Z,100.00
2022-12-03T16:03:47.078Z,100.00
2022-12-03T16:06:14.746Z,100.00
2022-12-03T16:08:41.411Z,100.00
2022-12-03T16:11:08.048Z,100.00
2022-12-03T16:13:34.676Z,100.00
2022-12-03T16:16:01.378Z,100.00
2022-12-03T16:18:28.059Z,100.00
2022-12-03T16:20:54.750Z,100.00
2022-12-03T16:23:21.349Z,100.00
2022-12-03T16:25:47.957Z,100.00
2022-12-03T16:28:14.782Z,100.00
2022-12-03T16:30:41.612Z,100.00
2022-12-03T16:33:08.203Z,100.00
2022-12-03T16:35:34.807Z,100.00
2022-12-03T16:38:01.374Z,100.00
2022-12-03T16:40:27.984Z,100.00
2022-12-03T16:42:56.361Z,100.00
2022-12-03T16:45:41.163Z,100.00
2022-12-03T16:48:08.023Z,100.00
2022-12-03T16:50:37.553Z,100.00
2022-12-03T16:53:04.174Z,100.00
2022-12-03T16:55:31.062Z,100.00
2022-12-03T16:57:57.804Z,100.00
2022-12-03T17:00:26.316Z,100.00
2022-12-03T17:02:53.090Z,100.00
2022-12-03T17:05:20.243Z,100.00
2022-12-03T17:07:47.262Z,100.00
2022-12-03T17:10:14.096Z,100.00
2022-12-03T17:13:08.355Z,100.00
2022-12-03T17:15:28.233Z,100.00
2022-12-03T17:17:55.021Z,100.00
2022-12-03T17:20:21.642Z,100.00
2022-12-03T17:22:49.192Z,100.00
2022-12-03T17:25:16.253Z,100.00
2022-12-03T17:27:45.365Z,100.00
2022-12-03T17:30:13.273Z,100.00
2022-12-03T17:32:39.972Z,100.00
2022-12-03T17:35:07.307Z,100.00
2022-12-03T17:37:34.720Z,100.00
2022-12-03T17:40:01.704Z,100.00
2022-12-03T17:42:28.650Z,100.00
2022-12-03T17:44:55.639Z,100.00
2022-12-03T17:47:24.397Z,100.00
2022-12-03T17:49:51.981Z,100.00
2022-12-03T17:52:19.153Z,100.00
2022-12-03T17:55:10.115Z,100.00
2022-12-03T17:57:33.925Z,100.00
2022-12-03T18:00:01.492Z,100.00
2022-12-03T18:02:28.389Z,100.00
2022-12-03T18:04:55.275Z,100.00
2022-12-03T18:07:21.906Z,100.00
2022-12-03T18:09:48.478Z,100.00
2022-12-03T18:12:15.079Z,100.00
2022-12-03T18:14:41.705Z,100.00
2022-12-03T18:17:08.389Z,100.00
2022-12-03T18:19:34.963Z,100.00
2022-12-03T18:22:01.574Z,100.00
2022-12-03T18:24:28.149Z,100.00
2022-12-03T18:26:54.765Z,100.00
2022-12-03T18:29:21.391Z,100.00
2022-12-03T18:31:48.023Z,100.00
2022-12-03T18:34:14.974Z,100.00
2022-12-03T18:36:41.987Z,100.00
2022-12-03T18:39:18.853Z,100.00
2022-12-03T18:41:45.548Z,100.00
2022-12-03T18:44:12.502Z,100.00
2022-12-03T18:46:53.633Z,100.00
2022-12-03T18:49:20.746Z,100.00
2022-12-03T18:51:48.435Z,100.00
2022-12-03T18:54:15.611Z,100.00
2022-12-03T18:56:42.244Z,100.00
2022-12-03T18:59:09.074Z,100.00
2022-12-03T19:01:36.111Z,100.00
2022-12-03T19:04:03.027Z,100.00
2022-12-03T19:06:30.615Z,100.00
2022-12-03T19:08:57.337Z,100.00
2022-12-03T19:11:24.122Z,100.00
2022-12-03T19:13:51.323Z,100.00
2022-12-03T19:16:18.049Z,100.00
2022-12-03T19:18:45.012Z,100.00
2022-12-03T19:21:14.350Z,100.00
2022-12-03T19:23:44.573Z,100.00
2022-12-03T19:26:30.360Z,100.00
2022-12-03T19:28:57.297Z,100.00
2022-12-03T19:31:23.954Z,100.00
2022-12-03T19:33:51.777Z,100.00
2022-12-03T19:36:24.917Z,100.00
2022-12-03T19:38:56.953Z,100.00
2022-12-03T19:41:27.404Z,100.00
2022-12-03T19:43:55.871Z,100.00
2022-12-03T19:46:24.528Z,100.00
2022-12-03T19:48:51.626Z,100.00
2022-12-03T19:51:34.035Z,100.00
2022-12-03T19:54:02.298Z,100.00
2022-12-03T19:56:30.437Z,100.00
2022-12-03T19:58:58.012Z,100.00
2022-12-03T20:01:27.858Z,100.00
2022-12-03T20:03:57.608Z,100.00
2022-12-03T20:06:28.257Z,100.00
2022-12-03T20:09:03.362Z,100.00
2022-12-03T20:11:32.181Z,100.00
2022-12-03T20:14:05.513Z,100.00
2022-12-03T20:16:32.789Z,100.00
2022-12-03T20:19:01.769Z,100.00
2022-12-03T20:21:31.460Z,100.00
2022-12-03T20:23:58.891Z,100.00
2022-12-03T20:26:27.346Z,100.00
2022-12-03T20:28:55.071Z,100.00
2022-12-03T20:31:24.166Z,100.00
2022-12-03T20:33:54.911Z,100.00
2022-12-03T20:36:22.807Z,100.00
2022-12-03T20:38:54.200Z,99.66
2022-12-03T20:41:20.984Z,99.75
2022-12-03T20:43:47.996Z,99.16
2022-12-03T20:46:26.378Z,99.61
2022-12-03T20:48:54.231Z,99.42
2022-12-03T20:51:23.377Z,99.79
2022-12-03T20:53:50.684Z,100.00
2022-12-03T20:56:24.569Z,100.00
2022-12-03T20:58:51.202Z,99.98
2022-12-03T21:01:20.796Z,100.00
2022-12-03T21:03:48.156Z,100.00
2022-12-03T21:06:15.521Z,99.72
2022-12-03T21:08:43.286Z,100.00
2022-12-03T21:11:11.517Z,100.00
2022-12-03T21:13:41.602Z,100.00
2022-12-03T21:16:10.790Z,99.86
2022-12-03T21:18:38.329Z,99.94
2022-12-03T21:21:05.763Z,99.46
2022-12-03T21:23:33.433Z,99.58
2022-12-03T21:26:08.459Z,99.45
2022-12-03T21:28:35.411Z,99.42
2022-12-03T21:31:05.798Z,99.02
2022-12-03T21:33:33.078Z,98.99
2022-12-03T21:36:00.222Z,99.17
2022-12-03T21:38:28.013Z,99.56
2022-12-03T21:40:55.666Z,99.14
2022-12-03T21:43:22.943Z,99.46
2022-12-03T21:45:49.990Z,99.05
2022-12-03T21:48:16.935Z,99.13
2022-12-03T21:50:44.186Z,99.56
2022-12-03T21:53:11.025Z,99.33
2022-12-03T21:55:41.251Z,98.71
2022-12-03T21:58:08.778Z,99.01
2022-12-03T22:00:36.122Z,98.92
2022-12-03T22:03:02.802Z,98.92
2022-12-03T22:05:29.440Z,98.97
2022-12-03T22:07:56.075Z,99.79
2022-12-03T22:10:22.783Z,99.35
2022-12-03T22:12:49.383Z,98.75
2022-12-03T22:15:19.201Z,98.26
2022-12-03T22:17:46.467Z,98.45
2022-12-03T22:20:13.238Z,99.45
2022-12-03T22:22:39.884Z,98.99
2022-12-03T22:25:06.736Z,98.60
2022-12-03T22:27:33.479Z,98.57
2022-12-03T22:30:00.143Z,98.17
2022-12-03T22:32:26.948Z,98.64
2022-12-03T22:34:53.760Z,98.93
2022-12-03T22:37:20.444Z,97.85
2022-12-03T22:39:47.098Z,97.24
2022-12-03T22:42:13.706Z,98.28
2022-12-03T22:44:40.279Z,98.01
2022-12-03T22:47:06.870Z,97.14
2022-12-03T22:49:33.571Z,97.58
2022-12-03T22:52:00.163Z,98.58
2022-12-03T22:54:26.746Z,97.68
2022-12-03T22:56:53.359Z,96.94
2022-12-03T22:59:19.987Z,96.88
2022-12-03T23:01:47.366Z,97.43
2022-12-03T23:04:14.137Z,97.71
2022-12-03T23:06:41.239Z,98.19
2022-12-03T23:09:08.055Z,97.70
2022-12-03T23:11:34.900Z,97.87
2022-12-03T23:14:02.039Z,97.50
2022-12-03T23:16:30.883Z,97.54
2022-12-03T23:18:59.377Z,98.01
2022-12-03T23:21:30.175Z,97.81
2022-12-03T23:24:01.328Z,97.82
2022-12-03T23:26:28.387Z,97.82
2022-12-03T23:28:55.805Z,97.18
2022-12-03T23:31:24.202Z,97.89
2022-12-03T23:33:52.391Z,97.39
2022-12-03T23:36:19.601Z,97.03
2022-12-03T23:38:46.834Z,97.00
2022-12-03T23:41:19.342Z,96.78
2022-12-03T23:43:46.261Z,97.77
2022-12-03T23:46:15.902Z,97.01
2022-12-03T23:48:42.962Z,97.22
2022-12-03T23:51:14.694Z,98.31
2022-12-03T23:53:41.535Z,97.58
2022-12-03T23:56:10.210Z,96.79
2022-12-03T23:58:38.590Z,96.83
